createdAt,value
2022-08-14T00:02:24.511Z,4.00
2022-08-14T00:04:55.587Z,3.03
2022-08-14T00:07:25.064Z,3.20
2022-08-14T00:10:01.626Z,3.70
2022-08-14T00:12:53.209Z,3.33
2022-08-14T00:15:29.668Z,3.60
2022-08-14T00:18:07.452Z,3.13
2022-08-14T00:20:41.251Z,3.47
2022-08-14T00:23:17.272Z,3.77
2022-08-14T00:25:59.120Z,3.33
2022-08-14T00:28:36.884Z,4.07
2022-08-14T00:31:08.110Z,3.30
2022-08-14T00:33:50.533Z,3.60
2022-08-14T00:36:36.816Z,3.43
2022-08-14T00:39:18.278Z,3.83
2022-08-14T00:41:47.738Z,4.00
2022-08-14T00:44:26.626Z,3.97
2022-08-14T00:47:01.540Z,3.57
2022-08-14T00:49:38.122Z,3.40
2022-08-14T00:52:13.873Z,3.70
2022-08-14T00:54:44.915Z,4.27
2022-08-14T00:57:14.168Z,4.10
2022-08-14T00:59:42.313Z,5.03
2022-08-14T01:02:10.801Z,4.10
2022-08-14T01:04:54.478Z,4.23
2022-08-14T01:07:24.898Z,4.10
2022-08-14T01:10:01.629Z,4.20
2022-08-14T01:12:30.636Z,4.00
2022-08-14T01:15:02.231Z,5.00
2022-08-14T01:17:49.582Z,4.00
2022-08-14T01:20:39.710Z,4.70
2022-08-14T01:23:16.260Z,4.90
2022-08-14T01:25:51.060Z,4.70
2022-08-14T01:28:34.304Z,4.10
2022-08-14T01:31:14.356Z,4.07
2022-08-14T01:35:16.563Z,3.80
2022-08-14T01:36:39.208Z,4.60
2022-08-14T01:39:14.372Z,4.10
2022-08-14T01:41:44.694Z,3.73
2022-08-14T01:44:31.164Z,4.40
2022-08-14T01:47:16.492Z,4.20
2022-08-14T01:49:59.939Z,4.73
2022-08-14T01:52:58.975Z,4.27
2022-08-14T01:55:32.258Z,5.13
2022-08-14T01:58:20.092Z,4.10
2022-08-14T02:00:55.022Z,3.50
2022-08-14T02:03:29.648Z,4.70
2022-08-14T02:06:04.239Z,4.50
2022-08-14T02:08:53.416Z,4.93
2022-08-14T02:11:27.051Z,5.00
2022-08-14T02:14:07.140Z,4.30
2022-08-14T02:16:41.794Z,5.30
2022-08-14T02:19:13.493Z,5.10
2022-08-14T02:21:48.743Z,5.57
2022-08-14T02:24:40.072Z,5.03
2022-08-14T02:28:22.669Z,5.87
2022-08-14T02:30:02.420Z,5.20
2022-08-14T02:32:36.428Z,5.00
2022-08-14T02:35:18.222Z,4.90
2022-08-14T02:37:49.192Z,5.10
2022-08-14T02:40:19.000Z,5.20
2022-08-14T02:42:54.241Z,4.63
2022-08-14T02:45:33.327Z,6.07
2022-08-14T02:48:10.409Z,6.20
2022-08-14T02:50:57.133Z,5.03
2022-08-14T02:53:29.666Z,5.70
2022-08-14T02:56:02.472Z,4.77
2022-08-14T02:58:34.064Z,4.30
2022-08-14T03:01:07.155Z,5.10
2022-08-14T03:03:38.922Z,5.60
2022-08-14T03:06:09.747Z,5.50
2022-08-14T03:08:39.846Z,5.27
2022-08-14T03:11:15.414Z,6.20
2022-08-14T03:13:48.202Z,5.20
2022-08-14T03:16:20.152Z,5.80
2022-08-14T03:18:58.288Z,5.33
2022-08-14T03:21:30.203Z,5.70
2022-08-14T03:24:16.382Z,6.07
2022-08-14T03:26:57.665Z,5.90
2022-08-14T03:29:29.571Z,5.53
2022-08-14T03:31:59.507Z,5.57
2022-08-14T03:34:47.842Z,5.80
2022-08-14T03:37:51.191Z,5.93
2022-08-14T03:40:11.200Z,5.43
2022-08-14T03:42:41.659Z,6.10
2022-08-14T03:45:25.809Z,5.97
2022-08-14T03:48:01.936Z,5.20
2022-08-14T03:50:32.545Z,5.20
2022-08-14T03:53:02.359Z,5.73
2022-08-14T03:55:31.166Z,6.60
2022-08-14T03:58:00.629Z,5.73
2022-08-14T04:00:44.425Z,6.30
2022-08-14T04:03:23.573Z,7.23
2022-08-14T04:05:52.822Z,6.30
2022-08-14T04:08:30.805Z,6.93
2022-08-14T04:11:07.818Z,5.70
2022-08-14T04:13:41.340Z,6.10
2022-08-14T04:16:14.187Z,5.80
2022-08-14T04:18:45.870Z,6.37
2022-08-14T04:21:16.240Z,6.33
2022-08-14T04:23:49.248Z,5.90
2022-08-14T04:26:42.231Z,6.90
2022-08-14T04:29:16.056Z,6.10
2022-08-14T04:33:02.841Z,5.50
2022-08-14T04:34:36.505Z,5.90
2022-08-14T04:37:25.219Z,6.13
2022-08-14T04:40:13.656Z,6.60
2022-08-14T04:43:01.258Z,6.70
2022-08-14T04:45:40.842Z,5.67
2022-08-14T04:48:39.858Z,6.90
2022-08-14T04:51:07.200Z,6.03
2022-08-14T04:53:43.249Z,6.60
2022-08-14T04:56:31.213Z,6.77
2022-08-14T04:59:10.729Z,6.27
2022-08-14T05:01:49.101Z,6.80
2022-08-14T05:04:23.396Z,6.30
2022-08-14T05:06:54.973Z,6.40
2022-08-14T05:09:29.375Z,7.17
2022-08-14T05:13:10.481Z,6.37
2022-08-14T05:14:53.312Z,6.80
2022-08-14T05:17:43.537Z,6.40
2022-08-14T05:21:58.348Z,6.03
2022-08-14T05:23:03.570Z,6.30
2022-08-14T05:25:34.178Z,6.27
2022-08-14T05:28:16.391Z,6.53
2022-08-14T05:30:46.385Z,6.03
2022-08-14T05:33:15.134Z,6.63
2022-08-14T05:35:45.457Z,6.40
2022-08-14T05:38:30.645Z,6.07
2022-08-14T05:41:00.798Z,6.03
2022-08-14T05:43:40.916Z,6.30
2022-08-14T05:46:15.144Z,6.77
2022-08-14T05:48:44.042Z,6.73
2022-08-14T05:51:14.893Z,7.30
2022-08-14T05:54:01.711Z,6.10
2022-08-14T05:56:32.616Z,6.27
2022-08-14T05:59:00.969Z,5.80
2022-08-14T06:01:31.580Z,5.73
2022-08-14T06:04:00.370Z,6.57
2022-08-14T06:06:33.795Z,5.17
2022-08-14T06:09:05.680Z,5.63
2022-08-14T06:11:38.834Z,5.50
2022-08-14T06:14:21.051Z,5.00
2022-08-14T06:16:53.067Z,5.83
2022-08-14T06:19:23.119Z,5.93
2022-08-14T06:21:58.924Z,5.13
2022-08-14T06:24:30.325Z,5.77
2022-08-14T06:27:04.261Z,4.60
2022-08-14T06:29:34.897Z,4.50
2022-08-14T06:32:38.477Z,5.23
2022-08-14T06:35:04.069Z,5.60
2022-08-14T06:37:44.123Z,4.87
2022-08-14T06:40:16.781Z,5.63
2022-08-14T06:43:00.350Z,5.37
2022-08-14T06:45:32.041Z,5.50
2022-08-14T06:48:01.090Z,5.63
2022-08-14T06:50:33.558Z,4.80
2022-08-14T06:53:03.416Z,5.73
2022-08-14T06:55:31.722Z,5.87
2022-08-14T06:57:59.864Z,5.37
2022-08-14T07:00:31.652Z,4.90
2022-08-14T07:03:19.222Z,4.33
2022-08-14T07:05:57.883Z,5.30
2022-08-14T07:08:32.185Z,4.77
2022-08-14T07:11:04.062Z,5.00
2022-08-14T07:13:33.670Z,4.87
2022-08-14T07:16:05.285Z,4.60
2022-08-14T07:18:37.364Z,5.10
2022-08-14T07:21:11.541Z,4.67
2022-08-14T07:23:44.165Z,5.43
2022-08-14T07:26:13.160Z,4.83
2022-08-14T07:28:43.655Z,5.03
2022-08-14T07:31:16.459Z,4.63
2022-08-14T07:33:50.801Z,5.17
2022-08-14T07:36:27.161Z,5.40
2022-08-14T07:39:00.339Z,4.73
2022-08-14T07:41:33.772Z,4.97
2022-08-14T07:44:32.162Z,4.37
2022-08-14T07:46:51.839Z,4.80
2022-08-14T07:49:20.983Z,5.03
2022-08-14T07:51:52.701Z,4.23
2022-08-14T07:54:30.565Z,4.77
2022-08-14T07:56:59.937Z,4.50
2022-08-14T07:59:42.512Z,4.50
2022-08-14T08:02:19.497Z,4.30
2022-08-14T08:04:54.831Z,4.50
2022-08-14T08:07:30.192Z,5.07
2022-08-14T08:10:31.420Z,4.73
2022-08-14T08:13:18.547Z,4.40
2022-08-14T08:15:54.899Z,4.17
2022-08-14T08:18:29.454Z,4.67
2022-08-14T08:20:59.839Z,4.13
2022-08-14T08:23:39.918Z,4.10
2022-08-14T08:26:10.472Z,4.90
2022-08-14T08:28:43.632Z,4.00
2022-08-14T08:31:14.080Z,4.20
2022-08-14T08:33:48.140Z,4.50
2022-08-14T08:36:19.092Z,4.73
2022-08-14T08:39:16.525Z,4.33
2022-08-14T08:41:50.456Z,4.70
2022-08-14T08:44:31.729Z,4.77
2022-08-14T08:47:05.922Z,4.00
2022-08-14T08:49:52.574Z,4.67
2022-08-14T08:52:32.421Z,3.43
2022-08-14T08:55:04.648Z,3.80
2022-08-14T08:57:39.754Z,4.03
2022-08-14T09:00:24.637Z,4.20
2022-08-14T09:02:58.082Z,3.93
2022-08-14T09:05:30.862Z,4.60
2022-08-14T09:08:31.027Z,3.87
2022-08-14T09:11:19.929Z,4.20
2022-08-14T09:13:55.179Z,4.73
2022-08-14T09:16:26.478Z,4.17
2022-08-14T09:18:57.705Z,4.30
2022-08-14T09:21:31.182Z,3.73
2022-08-14T09:24:29.566Z,3.73
2022-08-14T09:26:49.999Z,3.27
2022-08-14T09:29:23.129Z,3.80
2022-08-14T09:31:57.844Z,3.57
2022-08-14T09:34:58.243Z,3.60
2022-08-14T09:37:40.108Z,3.23
2022-08-14T09:40:25.152Z,3.57
2022-08-14T09:43:22.419Z,3.70
2022-08-14T09:45:53.904Z,3.67
2022-08-14T09:48:30.226Z,4.20
2022-08-14T09:54:19.524Z,3.60
2022-08-14T09:56:46.281Z,2.80
2022-08-14T09:59:27.937Z,3.20
2022-08-14T10:01:59.867Z,3.45
2022-08-14T10:04:35.026Z,2.90
2022-08-14T10:07:08.256Z,3.03
2022-08-14T10:09:57.688Z,2.80
2022-08-14T10:12:50.184Z,2.90
2022-08-14T10:15:27.795Z,3.20
2022-08-14T10:18:17.572Z,3.40
2022-08-14T10:20:59.171Z,3.07
2022-08-14T10:23:34.950Z,3.40
2022-08-14T10:26:07.834Z,3.10
2022-08-14T10:29:18.873Z,2.90
2022-08-14T10:31:40.105Z,3.00
2022-08-14T10:34:21.001Z,3.10
2022-08-14T10:37:10.452Z,3.40
2022-08-14T10:39:51.301Z,3.83
2022-08-14T10:42:38.246Z,3.17
2022-08-14T10:45:21.224Z,3.50
2022-08-14T10:48:09.711Z,3.70
2022-08-14T10:50:50.378Z,3.60
2022-08-14T10:53:32.811Z,3.80
2022-08-14T10:56:04.357Z,3.50
2022-08-14T10:58:34.961Z,3.73
2022-08-14T11:01:05.874Z,4.10
2022-08-14T11:03:56.149Z,3.10
2022-08-14T11:06:27.305Z,3.40
2022-08-14T11:08:56.094Z,3.20
2022-08-14T11:11:35.989Z,4.20
2022-08-14T11:14:09.594Z,3.83
2022-08-14T11:16:40.672Z,3.63
2022-08-14T11:19:10.523Z,3.27
2022-08-14T11:21:46.489Z,3.27
2022-08-14T11:24:55.323Z,3.87
2022-08-14T11:27:06.567Z,3.27
2022-08-14T11:29:36.888Z,3.10
2022-08-14T11:32:06.625Z,3.03
2022-08-14T11:34:37.927Z,3.93
2022-08-14T11:37:23.679Z,3.17
2022-08-14T11:39:56.980Z,3.27
2022-08-14T11:43:07.894Z,3.33
2022-08-14T11:45:23.434Z,3.10
2022-08-14T11:48:13.621Z,4.20
2022-08-14T11:50:41.751Z,3.70
2022-08-14T11:53:25.920Z,3.50
2022-08-14T11:56:06.190Z,3.77
2022-08-14T11:58:38.817Z,3.43
2022-08-14T12:01:09.717Z,2.50
2022-08-14T12:03:51.765Z,2.50
2022-08-14T12:06:29.044Z,2.70
2022-08-14T12:09:15.034Z,3.50
2022-08-14T12:11:46.961Z,3.43
2022-08-14T12:14:29.954Z,3.20
2022-08-14T12:17:06.588Z,3.10
2022-08-14T12:19:54.010Z,3.07
2022-08-14T12:22:37.280Z,3.50
2022-08-14T12:25:11.487Z,3.70
2022-08-14T12:27:52.441Z,3.50
2022-08-14T12:30:38.035Z,3.70
2022-08-14T12:33:25.764Z,2.90
2022-08-14T12:36:04.791Z,4.33
2022-08-14T12:38:38.360Z,3.50
2022-08-14T12:41:20.339Z,3.10
2022-08-14T12:43:56.485Z,4.20
2022-08-14T12:46:33.763Z,3.40
2022-08-14T12:49:10.962Z,3.40
2022-08-14T12:51:42.724Z,3.40
2022-08-14T12:54:27.238Z,3.60
2022-08-14T12:57:08.118Z,3.10
2022-08-14T12:59:42.781Z,4.03
2022-08-14T13:02:26.474Z,3.20
2022-08-14T13:04:57.810Z,3.23
2022-08-14T13:07:32.778Z,3.63
2022-08-14T13:10:34.356Z,4.00
2022-08-14T13:13:13.233Z,3.77
2022-08-14T13:15:46.278Z,4.00
2022-08-14T13:18:16.808Z,4.43
2022-08-14T13:20:49.375Z,3.97
2022-08-14T13:23:30.347Z,4.20
2022-08-14T13:26:00.745Z,4.03
2022-08-14T13:28:33.657Z,3.90
2022-08-14T13:31:11.331Z,3.70
2022-08-14T13:33:41.656Z,3.60
2022-08-14T13:36:23.927Z,4.30
2022-08-14T13:38:54.547Z,3.63
2022-08-14T13:41:31.448Z,4.10
2022-08-14T13:44:01.798Z,4.57
2022-08-14T13:46:30.083Z,3.93
2022-08-14T13:48:59.773Z,4.23
2022-08-14T13:51:33.005Z,3.90
2022-08-14T13:54:11.492Z,3.37
2022-08-14T13:56:42.073Z,3.87
2022-08-14T13:59:12.230Z,3.37
2022-08-14T14:01:52.304Z,3.37
2022-08-14T14:04:21.740Z,3.30
2022-08-14T14:06:52.563Z,3.30
2022-08-14T14:09:37.805Z,3.77
2022-08-14T14:12:36.626Z,2.70
2022-08-14T14:15:11.865Z,3.60
2022-08-14T14:17:41.349Z,2.93
2022-08-14T14:20:35.489Z,3.63
2022-08-14T14:23:09.552Z,3.00
2022-08-14T14:25:49.399Z,2.97
2022-08-14T14:28:31.055Z,3.67
2022-08-14T14:31:06.185Z,3.57
2022-08-14T14:33:52.370Z,3.53
2022-08-14T14:36:32.663Z,3.10
2022-08-14T14:39:04.162Z,2.60
2022-08-14T14:41:43.468Z,3.40
2022-08-14T14:44:15.890Z,3.20
2022-08-14T14:46:50.032Z,2.77
2022-08-14T14:49:21.506Z,2.83
2022-08-14T14:51:51.301Z,3.00
2022-08-14T14:54:30.868Z,2.60
2022-08-14T14:57:02.318Z,3.40
2022-08-14T14:59:33.593Z,2.83
2022-08-14T15:02:09.317Z,2.80
2022-08-14T15:04:43.620Z,2.77
2022-08-14T15:07:13.279Z,2.77
2022-08-14T15:09:45.659Z,3.53
2022-08-14T15:12:55.508Z,2.70
2022-08-14T15:15:08.998Z,2.90
2022-08-14T15:17:41.728Z,3.20
2022-08-14T15:20:17.411Z,3.13
2022-08-14T15:22:51.458Z,2.50
2022-08-14T15:25:20.929Z,3.37
2022-08-14T15:27:54.420Z,2.30
2022-08-14T15:30:32.060Z,2.70
2022-08-14T15:33:02.694Z,2.40
2022-08-14T15:35:34.213Z,2.90
2022-08-14T15:38:08.776Z,2.70
2022-08-14T15:40:41.147Z,2.30
2022-08-14T15:43:12.950Z,2.43
2022-08-14T15:45:42.850Z,2.80
2022-08-14T15:48:18.410Z,2.30
2022-08-14T15:50:53.695Z,2.37
2022-08-14T15:53:31.663Z,2.87
2022-08-14T15:56:00.624Z,2.83
2022-08-14T15:58:28.902Z,2.20
2022-08-14T16:01:22.570Z,2.50
2022-08-14T16:04:01.298Z,2.23
2022-08-14T16:06:30.695Z,2.60
2022-08-14T16:09:03.413Z,2.40
2022-08-14T16:11:47.487Z,2.70
2022-08-14T16:14:22.539Z,2.60
2022-08-14T16:17:00.347Z,2.17
2022-08-14T16:19:32.538Z,3.13
2022-08-14T16:23:00.400Z,2.20
2022-08-14T16:25:04.167Z,2.60
2022-08-14T16:27:41.387Z,3.00
2022-08-14T16:30:20.640Z,3.00
2022-08-14T16:32:57.636Z,2.57
2022-08-14T16:35:42.371Z,2.50
2022-08-14T16:38:46.472Z,2.47
2022-08-14T16:41:23.382Z,2.77
2022-08-14T16:43:59.350Z,3.00
2022-08-14T16:46:32.625Z,2.80
2022-08-14T16:49:02.135Z,2.73
2022-08-14T16:51:34.865Z,2.43
2022-08-14T16:54:34.591Z,2.47
2022-08-14T16:56:56.325Z,3.30
2022-08-14T16:59:30.518Z,3.17
2022-08-14T17:02:18.883Z,2.60
2022-08-14T17:04:49.294Z,2.90
2022-08-14T17:07:18.868Z,2.50
2022-08-14T17:09:50.240Z,3.30
2022-08-14T17:12:29.097Z,2.90
2022-08-14T17:15:09.946Z,3.23
2022-08-14T17:17:57.752Z,2.80
2022-08-14T17:20:53.902Z,2.40
2022-08-14T17:23:18.041Z,3.10
2022-08-14T17:25:50.930Z,2.90
2022-08-14T17:28:51.568Z,3.40
2022-08-14T17:31:12.221Z,2.87
2022-08-14T17:36:31.362Z,2.53
2022-08-14T17:39:07.023Z,2.80
2022-08-14T17:41:43.848Z,3.33
2022-08-14T17:44:22.156Z,3.50
2022-08-14T17:47:05.942Z,2.93
2022-08-14T17:49:40.444Z,3.87
2022-08-14T17:52:16.770Z,3.17
2022-08-14T17:54:52.632Z,2.90
2022-08-14T17:57:30.318Z,3.30
2022-08-14T18:00:08.393Z,3.27
2022-08-14T18:02:39.641Z,3.23
2022-08-14T18:05:23.631Z,3.07
2022-08-14T18:08:32.290Z,2.73
2022-08-14T18:10:59.999Z,3.20
2022-08-14T18:13:51.643Z,2.30
2022-08-14T18:16:20.126Z,2.93
2022-08-14T18:18:51.990Z,3.30
2022-08-14T18:21:40.263Z,3.50
2022-08-14T18:24:28.209Z,2.73
2022-08-14T18:27:09.197Z,2.63
2022-08-14T18:29:54.638Z,2.90
2022-08-14T18:32:47.147Z,2.63
2022-08-14T18:35:46.178Z,3.30
2022-08-14T18:38:45.624Z,3.10
2022-08-14T18:41:36.681Z,3.57
2022-08-14T18:44:10.327Z,2.27
2022-08-14T18:47:22.447Z,4.10
2022-08-14T18:50:26.423Z,3.67
2022-08-14T18:52:54.897Z,3.13
2022-08-14T18:55:53.879Z,2.90
2022-08-14T18:58:31.183Z,3.40
2022-08-14T19:01:06.220Z,3.50
2022-08-14T19:03:53.015Z,3.80
2022-08-14T19:06:41.787Z,3.63
2022-08-14T19:09:53.604Z,3.10
2022-08-14T19:13:11.816Z,3.10
2022-08-14T19:15:43.795Z,3.67
2022-08-14T19:18:27.772Z,3.60
2022-08-14T19:20:59.332Z,3.30
2022-08-14T19:23:40.705Z,3.20
2022-08-14T19:26:34.066Z,3.27
2022-08-14T19:29:23.595Z,3.40
2022-08-14T19:31:55.517Z,2.80
2022-08-14T19:34:52.780Z,3.37
2022-08-14T19:37:48.430Z,3.60
2022-08-14T19:40:33.375Z,3.50
2022-08-14T19:43:09.038Z,2.80
2022-08-14T19:45:39.621Z,3.30
2022-08-14T19:48:15.562Z,3.13
2022-08-14T19:50:47.114Z,2.90
2022-08-14T19:53:17.146Z,3.57
2022-08-14T19:55:59.614Z,3.87
2022-08-14T19:58:54.969Z,3.07
2022-08-14T20:01:37.075Z,3.47
2022-08-14T20:04:46.395Z,3.70
2022-08-14T20:07:04.387Z,3.37
2022-08-14T20:11:04.040Z,2.87
2022-08-14T20:12:35.431Z,3.07
2022-08-14T20:15:13.983Z,3.40
2022-08-14T20:17:52.876Z,3.60
2022-08-14T20:20:31.452Z,3.10
2022-08-14T20:23:11.160Z,3.50
2022-08-14T20:25:55.704Z,2.90
2022-08-14T20:28:35.448Z,3.60
2022-08-14T20:31:18.778Z,3.10
2022-08-14T20:34:24.456Z,2.80
2022-08-14T20:37:10.090Z,3.70
2022-08-14T20:39:54.787Z,2.90
2022-08-14T20:42:43.579Z,3.40
2022-08-14T20:45:24.157Z,3.20
2022-08-14T20:48:01.028Z,3.33
2022-08-14T20:50:31.912Z,3.10
2022-08-14T20:53:05.981Z,3.23
2022-08-14T20:55:41.407Z,3.00
2022-08-14T20:58:41.862Z,3.13
2022-08-14T21:01:33.773Z,3.77
2022-08-14T21:04:28.424Z,3.17
2022-08-14T21:07:26.099Z,3.43
2022-08-14T21:10:06.420Z,2.80
2022-08-14T21:13:13.956Z,3.50
2022-08-14T21:15:32.233Z,2.93
2022-08-14T21:18:01.825Z,3.13
2022-08-14T21:20:29.985Z,3.30
2022-08-14T21:23:01.170Z,3.70
2022-08-14T21:25:31.866Z,3.43
2022-08-14T21:28:04.798Z,3.50
2022-08-14T21:30:51.937Z,3.50
2022-08-14T21:33:23.516Z,4.97
2022-08-14T21:35:55.638Z,2.87
2022-08-14T21:38:34.301Z,3.67
2022-08-14T21:41:42.735Z,2.87
2022-08-14T21:44:17.877Z,3.30
2022-08-14T21:46:53.971Z,3.33
2022-08-14T21:49:34.022Z,4.17
2022-08-14T21:52:49.482Z,3.30
2022-08-14T21:55:09.677Z,3.80
2022-08-14T21:57:56.574Z,3.43
2022-08-14T22:00:36.570Z,3.23
2022-08-14T22:03:10.661Z,3.03
2022-08-14T22:05:42.099Z,3.07
2022-08-14T22:08:14.342Z,3.50
2022-08-14T22:10:51.533Z,3.23
2022-08-14T22:13:26.578Z,3.20
2022-08-14T22:15:59.874Z,3.20
2022-08-14T22:18:32.272Z,3.10
2022-08-14T22:21:05.818Z,3.37
2022-08-14T22:23:36.462Z,3.93
2022-08-14T22:26:06.400Z,3.50
2022-08-14T22:28:34.742Z,3.27
2022-08-14T22:31:10.263Z,3.23
2022-08-14T22:33:42.922Z,3.30
2022-08-14T22:36:34.244Z,3.73
2022-08-14T22:39:11.177Z,3.50
2022-08-14T22:41:42.393Z,3.77
2022-08-14T22:44:14.577Z,3.30
2022-08-14T22:46:45.222Z,2.23
2022-08-14T22:49:16.288Z,3.30
2022-08-14T22:52:32.856Z,3.20
2022-08-14T22:54:58.766Z,3.43
2022-08-14T22:57:41.743Z,3.60
2022-08-14T23:00:19.861Z,3.57
2022-08-14T23:02:58.062Z,3.60
2022-08-14T23:05:38.645Z,3.40
2022-08-14T23:08:57.652Z,2.97
2022-08-14T23:11:03.101Z,2.70
2022-08-14T23:13:32.361Z,3.27
2022-08-14T23:16:00.804Z,2.77
2022-08-14T23:18:30.449Z,2.90
2022-08-14T23:20:59.341Z,2.70
2022-08-14T23:23:29.547Z,2.80
2022-08-14T23:26:00.607Z,2.80
2022-08-14T23:28:56.900Z,2.80
2022-08-14T23:31:35.600Z,2.47
2022-08-14T23:34:20.750Z,2.70
2022-08-14T23:36:55.362Z,2.60
2022-08-14T23:39:30.962Z,3.00
2022-08-14T23:42:04.588Z,2.40
2022-08-14T23:44:36.887Z,2.50
2022-08-14T23:47:11.610Z,2.63
2022-08-14T23:50:03.133Z,2.20
2022-08-14T23:52:50.150Z,2.53
2022-08-14T23:55:22.470Z,2.43
2022-08-14T23:57:57.424Z,2.57
